createdAt,value
2017-06-28T00:00:11.823Z,23.20
2017-06-28T00:02:37.719Z,23.30
2017-06-28T00:05:04.467Z,23.20
2017-06-28T00:07:30.375Z,23.20
2017-06-28T00:09:56.310Z,23.10
2017-06-28T00:12:22.215Z,23.00
2017-06-28T00:14:48.147Z,23.10
2017-06-28T00:17:14.097Z,23.20
2017-06-28T00:19:40.020Z,23.20
2017-06-28T00:22:05.983Z,23.10
2017-06-28T00:24:31.914Z,23.00
2017-06-28T00:26:57.934Z,23.00
2017-06-28T00:29:23.848Z,22.90
2017-06-28T00:31:49.787Z,22.80
2017-06-28T00:34:15.716Z,22.70
2017-06-28T00:36:41.669Z,22.60
2017-06-28T00:39:07.604Z,22.40
2017-06-28T00:41:33.522Z,22.30
2017-06-28T00:43:59.464Z,22.30
2017-06-28T00:46:25.398Z,22.50
2017-06-28T00:48:51.347Z,22.50
2017-06-28T00:51:17.266Z,22.60
2017-06-28T00:53:43.205Z,22.50
2017-06-28T00:56:09.152Z,22.40
2017-06-28T00:58:35.187Z,22.30
2017-06-28T01:01:01.091Z,22.40
2017-06-28T01:03:26.999Z,22.40
2017-06-28T01:05:52.972Z,22.40
2017-06-28T01:08:18.903Z,22.50
2017-06-28T01:10:44.841Z,22.50
2017-06-28T01:13:10.754Z,22.50
2017-06-28T01:15:36.683Z,22.50
2017-06-28T01:18:02.634Z,22.50
2017-06-28T01:20:28.550Z,22.50
2017-06-28T01:22:54.482Z,22.50
2017-06-28T01:25:20.410Z,22.50
2017-06-28T01:27:46.339Z,22.50
2017-06-28T01:30:12.275Z,22.50
2017-06-28T01:32:38.249Z,22.50
2017-06-28T01:35:04.203Z,22.50
2017-06-28T01:37:30.123Z,22.40
2017-06-28T01:39:56.066Z,22.50
2017-06-28T01:42:22.024Z,22.60
2017-06-28T01:44:48.679Z,22.70
2017-06-28T01:47:14.619Z,22.60
2017-06-28T01:49:41.398Z,22.70
2017-06-28T01:52:07.328Z,22.70
2017-06-28T01:54:33.271Z,22.50
2017-06-28T01:56:59.191Z,22.50
2017-06-28T01:59:25.119Z,22.60
2017-06-28T02:01:51.018Z,22.60
2017-06-28T02:04:16.959Z,22.40
2017-06-28T02:06:42.943Z,22.40
2017-06-28T02:09:08.870Z,22.50
2017-06-28T02:11:34.803Z,22.50
2017-06-28T02:14:00.743Z,22.50
2017-06-28T02:16:26.748Z,22.40
2017-06-28T02:18:52.701Z,22.40
2017-06-28T02:21:18.664Z,22.50
2017-06-28T02:23:44.579Z,22.50
2017-06-28T02:26:10.580Z,22.50
2017-06-28T02:28:36.538Z,22.40
2017-06-28T02:31:02.459Z,22.40
2017-06-28T02:33:28.427Z,22.30
2017-06-28T02:35:54.369Z,22.40
2017-06-28T02:38:20.318Z,22.40
2017-06-28T02:40:46.256Z,22.50
2017-06-28T02:43:12.938Z,22.30
2017-06-28T02:45:38.914Z,22.30
2017-06-28T02:48:04.856Z,22.30
2017-06-28T02:50:30.802Z,22.40
2017-06-28T02:52:56.746Z,22.40
2017-06-28T02:55:22.679Z,22.30
2017-06-28T02:57:48.627Z,22.20
2017-06-28T03:00:15.295Z,22.20
2017-06-28T03:02:41.247Z,22.20
2017-06-28T03:05:07.197Z,22.30
2017-06-28T03:07:33.182Z,22.40
2017-06-28T03:09:59.129Z,22.40
2017-06-28T03:12:25.064Z,22.30
2017-06-28T03:14:51.760Z,22.00
2017-06-28T03:17:17.719Z,22.00
2017-06-28T03:19:43.669Z,22.00
2017-06-28T03:22:09.592Z,21.90
2017-06-28T03:24:35.571Z,21.70
2017-06-28T03:27:01.507Z,21.80
2017-06-28T03:29:28.194Z,21.90
2017-06-28T03:31:54.120Z,21.80
2017-06-28T03:34:20.047Z,21.90
2017-06-28T03:36:45.955Z,21.90
2017-06-28T03:39:11.934Z,21.90
2017-06-28T03:41:37.891Z,21.80
2017-06-28T03:44:03.827Z,21.80
2017-06-28T03:46:29.805Z,21.80
2017-06-28T03:48:55.727Z,21.80
2017-06-28T03:51:21.662Z,21.70
2017-06-28T03:53:47.608Z,21.70
2017-06-28T03:56:13.679Z,21.70
2017-06-28T03:58:39.599Z,21.70
2017-06-28T04:01:05.527Z,21.80
2017-06-28T04:03:31.451Z,21.70
2017-06-28T04:05:57.392Z,21.70
2017-06-28T04:08:23.327Z,21.70
2017-06-28T04:10:49.258Z,21.70
2017-06-28T04:13:15.176Z,21.60
2017-06-28T04:15:41.110Z,21.50
2017-06-28T04:18:07.067Z,21.50
2017-06-28T04:20:33.001Z,21.60
2017-06-28T04:22:58.943Z,21.60
2017-06-28T04:25:24.866Z,21.50
2017-06-28T04:27:50.885Z,21.50
2017-06-28T04:30:16.826Z,21.40
2017-06-28T04:32:42.763Z,21.40
2017-06-28T04:35:08.716Z,21.40
2017-06-28T04:37:34.649Z,21.60
2017-06-28T04:40:00.593Z,21.60
2017-06-28T04:42:26.551Z,21.60
2017-06-28T04:44:52.483Z,21.60
2017-06-28T04:47:19.184Z,21.60
2017-06-28T04:49:45.111Z,21.50
2017-06-28T04:52:11.059Z,21.70
2017-06-28T04:54:36.995Z,21.50
2017-06-28T04:57:02.930Z,21.50
2017-06-28T04:59:28.859Z,21.50
2017-06-28T05:01:54.773Z,21.40
2017-06-28T05:04:20.721Z,21.30
2017-06-28T05:06:46.675Z,21.50
2017-06-28T05:09:12.644Z,21.70
2017-06-28T05:11:38.580Z,21.50
2017-06-28T05:14:04.524Z,21.50
2017-06-28T05:16:30.467Z,21.40
2017-06-28T05:18:56.388Z,21.50
2017-06-28T05:21:22.305Z,21.50
2017-06-28T05:23:48.247Z,21.60
2017-06-28T05:26:14.217Z,21.60
2017-06-28T05:28:40.172Z,21.40
2017-06-28T05:31:06.111Z,21.40
2017-06-28T05:33:32.171Z,21.40
2017-06-28T05:35:59.136Z,21.40
2017-06-28T05:38:25.090Z,21.40
2017-06-28T05:40:51.029Z,21.40
2017-06-28T05:43:17.238Z,21.40
2017-06-28T05:45:43.240Z,21.40
2017-06-28T05:48:09.176Z,21.40
2017-06-28T05:50:35.096Z,21.40
2017-06-28T05:53:01.023Z,21.40
2017-06-28T05:55:27.691Z,21.50
2017-06-28T05:57:53.616Z,21.40
2017-06-28T06:00:19.551Z,21.50
2017-06-28T06:02:45.549Z,21.50
2017-06-28T06:05:11.476Z,21.50
2017-06-28T06:07:37.398Z,21.50
2017-06-28T06:10:03.927Z,21.60
2017-06-28T06:12:29.847Z,21.60
2017-06-28T06:14:55.844Z,21.60
2017-06-28T06:17:22.611Z,21.70
2017-06-28T06:19:48.527Z,21.70
2017-06-28T06:22:14.471Z,21.80
2017-06-28T06:24:40.469Z,21.70
2017-06-28T06:27:06.495Z,21.70
2017-06-28T06:29:32.418Z,21.60
2017-06-28T06:31:58.415Z,21.60
2017-06-28T06:34:24.444Z,21.50
2017-06-28T06:36:50.413Z,21.40
2017-06-28T06:39:16.370Z,21.40
2017-06-28T06:41:42.303Z,21.50
2017-06-28T06:44:08.342Z,21.40
2017-06-28T06:46:34.331Z,21.30
2017-06-28T06:49:00.974Z,21.30
2017-06-28T06:51:26.915Z,21.20
2017-06-28T06:53:52.983Z,21.20
2017-06-28T06:56:18.906Z,21.10
2017-06-28T06:58:44.816Z,21.00
2017-06-28T07:01:10.730Z,21.00
2017-06-28T07:03:36.803Z,20.90
2017-06-28T07:06:02.755Z,20.90
2017-06-28T07:08:28.731Z,20.70
2017-06-28T07:10:54.655Z,20.50
2017-06-28T07:13:20.575Z,20.50
2017-06-28T07:15:46.486Z,20.50
2017-06-28T07:18:12.461Z,20.40
2017-06-28T07:20:38.359Z,20.40
2017-06-28T07:23:04.357Z,20.50
2017-06-28T07:25:31.048Z,20.40
2017-06-28T07:27:57.020Z,20.40
2017-06-28T07:30:22.924Z,20.50
2017-06-28T07:32:49.135Z,20.50
2017-06-28T07:35:15.929Z,20.60
2017-06-28T07:37:41.870Z,20.60
2017-06-28T07:40:07.811Z,20.70
2017-06-28T07:42:34.622Z,20.50
2017-06-28T07:45:00.555Z,20.50
2017-06-28T07:47:26.467Z,20.50
2017-06-28T07:49:52.460Z,20.40
2017-06-28T07:52:18.384Z,20.40
2017-06-28T07:54:51.289Z,20.40
2017-06-28T07:57:17.184Z,20.30
2017-06-28T07:59:43.184Z,20.30
2017-06-28T08:02:09.136Z,20.20
2017-06-28T08:04:35.055Z,20.20
2017-06-28T08:07:00.966Z,20.30
2017-06-28T08:09:26.871Z,20.30
2017-06-28T08:11:52.785Z,20.20
2017-06-28T08:14:18.708Z,20.10
2017-06-28T08:16:44.639Z,20.10
2017-06-28T08:19:10.556Z,20.10
2017-06-28T08:21:36.470Z,20.10
2017-06-28T08:24:02.403Z,20.10
2017-06-28T08:26:28.323Z,20.10
2017-06-28T08:28:54.223Z,20.20
2017-06-28T08:31:20.127Z,20.20
2017-06-28T08:33:46.038Z,20.20
2017-06-28T08:36:12.012Z,20.20
2017-06-28T08:38:37.908Z,20.20
2017-06-28T08:41:03.816Z,20.20
2017-06-28T08:43:29.747Z,20.20
2017-06-28T08:45:55.677Z,20.20
2017-06-28T08:48:21.613Z,20.20
2017-06-28T08:50:47.535Z,20.20
2017-06-28T08:53:13.447Z,20.30
2017-06-28T08:55:39.360Z,20.40
2017-06-28T08:58:05.278Z,20.60
2017-06-28T09:00:31.199Z,20.70
2017-06-28T09:02:57.111Z,20.80
2017-06-28T09:05:23.036Z,20.80
2017-06-28T09:07:48.975Z,20.80
2017-06-28T09:10:14.927Z,20.80
2017-06-28T09:12:40.846Z,20.80
2017-06-28T09:15:06.811Z,20.90
2017-06-28T09:17:32.782Z,21.00
2017-06-28T09:19:58.719Z,21.10
2017-06-28T09:22:24.639Z,21.10
2017-06-28T09:24:50.585Z,20.90
2017-06-28T09:27:16.523Z,21.00
2017-06-28T09:29:42.464Z,21.00
2017-06-28T09:32:08.391Z,20.90
2017-06-28T09:34:34.387Z,20.90
2017-06-28T09:37:00.300Z,20.90
2017-06-28T09:39:26.275Z,21.20
2017-06-28T09:41:52.192Z,21.40
2017-06-28T09:44:18.128Z,21.50
2017-06-28T09:46:44.034Z,21.40
2017-06-28T09:49:10.003Z,21.40
2017-06-28T09:51:35.931Z,21.50
2017-06-28T09:54:02.715Z,21.80
2017-06-28T09:56:28.631Z,21.80
2017-06-28T09:58:54.549Z,21.90
2017-06-28T10:01:20.491Z,21.70
2017-06-28T10:03:46.428Z,21.70
2017-06-28T10:06:12.347Z,21.60
2017-06-28T10:08:38.267Z,21.70
2017-06-28T10:11:04.183Z,21.80
2017-06-28T10:13:30.120Z,21.80
2017-06-28T10:15:56.063Z,21.80
2017-06-28T10:18:22.773Z,21.90
2017-06-28T10:20:48.760Z,21.90
2017-06-28T10:23:14.799Z,21.90
2017-06-28T10:25:40.773Z,21.90
2017-06-28T10:28:06.722Z,21.90
2017-06-28T10:30:32.687Z,21.70
2017-06-28T10:32:58.679Z,21.60
2017-06-28T10:35:24.658Z,21.80
2017-06-28T10:37:51.547Z,21.80
2017-06-28T10:40:17.514Z,21.80
2017-06-28T10:42:43.496Z,21.80
2017-06-28T10:45:09.439Z,21.80
2017-06-28T10:47:35.364Z,21.90
2017-06-28T10:50:01.371Z,21.90
2017-06-28T10:52:27.300Z,22.00
2017-06-28T10:54:54.016Z,22.20
2017-06-28T10:57:21.461Z,22.10
2017-06-28T10:59:47.446Z,22.20
2017-06-28T11:02:14.103Z,22.10
2017-06-28T11:04:40.015Z,22.10
2017-06-28T11:07:05.904Z,22.00
2017-06-28T11:09:31.840Z,22.00
2017-06-28T11:11:58.538Z,21.70
2017-06-28T11:14:24.509Z,21.70
2017-06-28T11:16:50.457Z,21.80
2017-06-28T11:19:16.434Z,21.90
2017-06-28T11:21:43.102Z,22.20
2017-06-28T11:24:09.021Z,22.20
2017-06-28T11:26:34.946Z,22.30
2017-06-28T11:29:00.857Z,22.30
2017-06-28T11:31:28.400Z,22.40
2017-06-28T11:33:54.333Z,22.30
2017-06-28T11:36:20.250Z,22.40
2017-06-28T11:38:46.208Z,22.50
2017-06-28T11:41:12.135Z,22.60
2017-06-28T11:43:39.605Z,22.90
2017-06-28T11:46:05.765Z,23.10
2017-06-28T11:48:31.692Z,23.50
2017-06-28T11:50:57.660Z,23.80
2017-06-28T11:53:23.760Z,23.70
2017-06-28T11:55:49.917Z,23.30
2017-06-28T11:58:15.819Z,23.00
2017-06-28T12:00:41.723Z,22.90
2017-06-28T12:03:07.736Z,22.90
2017-06-28T12:05:33.648Z,23.10
2017-06-28T12:07:59.557Z,23.50
2017-06-28T12:10:25.482Z,24.10
2017-06-28T12:12:51.559Z,24.50
2017-06-28T12:15:17.721Z,24.80
2017-06-28T12:17:44.787Z,25.00
2017-06-28T12:20:10.829Z,24.90
2017-06-28T12:22:36.745Z,24.90
2017-06-28T12:25:02.665Z,24.90
2017-06-28T12:27:28.587Z,25.00
2017-06-28T12:29:54.591Z,24.60
2017-06-28T12:32:20.532Z,24.40
2017-06-28T12:34:46.461Z,24.30
2017-06-28T12:37:12.374Z,24.30
2017-06-28T12:39:38.293Z,24.20
2017-06-28T12:42:04.229Z,24.10
2017-06-28T12:44:30.171Z,24.00
2017-06-28T12:46:56.107Z,24.10
2017-06-28T12:49:22.033Z,24.40
2017-06-28T12:51:47.934Z,24.40
2017-06-28T12:54:13.856Z,24.30
2017-06-28T12:56:39.772Z,24.30
2017-06-28T12:59:05.857Z,24.10
2017-06-28T13:01:31.763Z,23.80
2017-06-28T13:03:57.708Z,23.50
2017-06-28T13:06:23.719Z,23.40
2017-06-28T13:08:49.727Z,23.30
2017-06-28T13:11:15.623Z,23.30
2017-06-28T13:13:41.554Z,23.30
2017-06-28T13:16:07.483Z,23.30
2017-06-28T13:18:33.433Z,23.40
2017-06-28T13:20:59.431Z,23.40
2017-06-28T13:23:25.383Z,23.30
2017-06-28T13:25:51.329Z,23.20
2017-06-28T13:28:17.267Z,23.00
2017-06-28T13:30:43.993Z,22.30
2017-06-28T13:33:10.428Z,22.20
2017-06-28T13:35:37.295Z,22.50
2017-06-28T13:38:03.318Z,22.70
2017-06-28T13:40:30.080Z,23.10
2017-06-28T13:42:56.104Z,23.30
2017-06-28T13:45:22.985Z,23.50
2017-06-28T13:47:49.036Z,23.80
2017-06-28T13:50:15.231Z,24.00
2017-06-28T13:52:41.239Z,24.10
2017-06-28T13:55:07.458Z,24.20
2017-06-28T13:57:33.476Z,24.30
2017-06-28T14:00:02.306Z,24.60
2017-06-28T14:02:29.166Z,24.60
2017-06-28T14:04:55.172Z,24.80
2017-06-28T14:07:21.203Z,24.80
2017-06-28T14:09:48.187Z,24.30
2017-06-28T14:12:14.211Z,24.30
2017-06-28T14:14:40.205Z,24.10
2017-06-28T14:17:07.089Z,23.90
2017-06-28T14:19:33.035Z,23.90
2017-06-28T14:21:59.329Z,24.00
2017-06-28T14:24:25.271Z,24.10
2017-06-28T14:26:51.228Z,24.20
2017-06-28T14:29:17.832Z,24.30
2017-06-28T14:31:43.839Z,24.30
2017-06-28T14:34:09.837Z,24.20
2017-06-28T14:36:37.268Z,24.10
2017-06-28T14:39:03.239Z,24.30
2017-06-28T14:41:29.172Z,24.60
2017-06-28T14:43:55.156Z,24.50
2017-06-28T14:46:21.421Z,24.40
2017-06-28T14:48:47.412Z,24.40
2017-06-28T14:51:13.567Z,24.60
2017-06-28T14:53:39.508Z,24.70
2017-06-28T14:56:05.533Z,25.10
2017-06-28T14:58:31.534Z,25.10
2017-06-28T15:00:57.460Z,25.20
2017-06-28T15:03:23.412Z,25.10
2017-06-28T15:05:49.404Z,25.00
2017-06-28T15:08:15.375Z,24.80
2017-06-28T15:10:41.620Z,24.70
2017-06-28T15:13:07.596Z,24.90
2017-06-28T15:15:33.579Z,24.80
2017-06-28T15:17:59.525Z,24.60
2017-06-28T15:20:25.461Z,24.50
2017-06-28T15:22:51.492Z,24.50
2017-06-28T15:25:19.004Z,24.40
2017-06-28T15:27:44.964Z,24.30
2017-06-28T15:30:11.000Z,24.30
2017-06-28T15:32:36.913Z,24.50
2017-06-28T15:35:03.005Z,24.60
2017-06-28T15:37:28.937Z,24.50
2017-06-28T15:39:54.896Z,24.40
2017-06-28T15:42:20.928Z,24.70
2017-06-28T15:44:46.843Z,25.20
2017-06-28T15:47:12.835Z,25.60
2017-06-28T15:49:38.786Z,25.60
2017-06-28T15:52:05.486Z,25.70
2017-06-28T15:54:32.256Z,25.60
2017-06-28T15:56:58.239Z,25.80
2017-06-28T15:59:24.179Z,26.00
2017-06-28T16:01:50.112Z,26.50
2017-06-28T16:04:16.036Z,26.60
2017-06-28T16:06:42.063Z,26.80
2017-06-28T16:09:08.022Z,26.50
2017-06-28T16:11:33.922Z,26.50
2017-06-28T16:13:59.899Z,26.70
2017-06-28T16:16:25.853Z,26.50
2017-06-28T16:18:51.836Z,26.30
2017-06-28T16:21:17.771Z,26.40
2017-06-28T16:23:43.719Z,26.50
2017-06-28T16:26:09.744Z,26.80
2017-06-28T16:31:08.471Z,26.80
2017-06-28T16:33:34.452Z,27.40
2017-06-28T16:36:01.273Z,27.50
2017-06-28T16:38:27.224Z,27.70
2017-06-28T16:40:53.356Z,27.60
2017-06-28T16:43:19.283Z,26.80
2017-06-28T16:45:45.317Z,26.40
2017-06-28T16:48:11.222Z,26.20
2017-06-28T16:50:37.232Z,26.20
2017-06-28T16:53:03.164Z,26.00
2017-06-28T16:55:29.199Z,25.80
2017-06-28T16:57:55.115Z,25.90
2017-06-28T17:00:21.411Z,26.10
2017-06-28T17:02:47.363Z,26.30
2017-06-28T17:05:13.312Z,26.50
2017-06-28T17:07:39.202Z,26.00
2017-06-28T17:10:05.130Z,26.20
2017-06-28T17:12:31.058Z,26.60
2017-06-28T17:14:57.069Z,26.80
2017-06-28T17:17:23.075Z,27.00
2017-06-28T17:19:49.100Z,27.10
2017-06-28T17:22:15.172Z,27.40
2017-06-28T17:24:41.111Z,27.50
2017-06-28T17:27:07.054Z,27.80
2017-06-28T17:29:33.582Z,27.80
2017-06-28T17:31:59.530Z,27.80
2017-06-28T17:34:25.474Z,27.70
2017-06-28T17:36:51.389Z,27.80
2017-06-28T17:39:17.343Z,28.10
2017-06-28T17:41:43.373Z,28.20
2017-06-28T17:44:09.447Z,27.90
2017-06-28T17:46:35.443Z,28.00
2017-06-28T17:49:01.507Z,27.80
2017-06-28T17:51:28.379Z,27.40
2017-06-28T17:53:55.247Z,27.40
2017-06-28T17:56:21.195Z,27.50
2017-06-28T17:58:47.172Z,27.70
2017-06-28T18:01:13.135Z,27.60
2017-06-28T18:03:39.131Z,27.80
2017-06-28T18:06:05.846Z,27.90
2017-06-28T18:08:31.818Z,27.80
2017-06-28T18:10:57.827Z,27.60
2017-06-28T18:13:23.748Z,27.40
2017-06-28T18:15:49.702Z,27.30
2017-06-28T18:18:15.682Z,27.20
2017-06-28T18:20:41.647Z,27.10
2017-06-28T18:23:07.575Z,26.90
2017-06-28T18:25:34.306Z,26.50
2017-06-28T18:28:00.252Z,26.20
2017-06-28T18:30:26.243Z,26.10
2017-06-28T18:32:52.247Z,26.00
2017-06-28T18:35:18.176Z,25.90
2017-06-28T18:37:44.247Z,25.70
2017-06-28T18:40:10.232Z,25.60
2017-06-28T18:42:36.255Z,25.60
2017-06-28T18:45:02.225Z,25.70
2017-06-28T18:47:28.977Z,25.60
2017-06-28T18:49:54.955Z,25.60
2017-06-28T18:52:21.796Z,25.60
2017-06-28T18:54:47.739Z,25.40
2017-06-28T18:57:14.168Z,25.20
2017-06-28T18:59:40.083Z,24.80
2017-06-28T19:02:06.004Z,24.70
2017-06-28T19:04:31.931Z,24.60
2017-06-28T19:06:57.864Z,24.40
2017-06-28T19:09:23.803Z,24.40
2017-06-28T19:11:49.702Z,24.40
2017-06-28T19:14:15.632Z,24.50
2017-06-28T19:16:41.587Z,24.40
2017-06-28T19:19:07.567Z,24.40
2017-06-28T19:21:34.284Z,24.10
2017-06-28T19:24:00.277Z,24.10
2017-06-28T19:26:26.244Z,24.10
2017-06-28T19:28:52.934Z,24.00
2017-06-28T19:31:18.915Z,24.00
2017-06-28T19:33:44.860Z,24.00
2017-06-28T19:36:10.780Z,24.00
2017-06-28T19:38:36.700Z,24.00
2017-06-28T19:41:02.703Z,24.00
2017-06-28T19:43:28.642Z,24.00
2017-06-28T19:45:54.592Z,23.80
2017-06-28T19:48:20.504Z,23.90
2017-06-28T19:50:46.499Z,23.90
2017-06-28T19:53:12.420Z,23.80
2017-06-28T19:55:38.360Z,23.90
2017-06-28T19:58:04.283Z,23.70
2017-06-28T20:00:31.107Z,23.70
2017-06-28T20:02:57.135Z,23.70
2017-06-28T20:05:23.072Z,23.50
2017-06-28T20:07:48.985Z,23.50
2017-06-28T20:10:16.815Z,23.50
2017-06-28T20:12:42.793Z,23.50
2017-06-28T20:15:09.419Z,23.50
2017-06-28T20:17:35.371Z,23.60
2017-06-28T20:20:01.475Z,23.60
2017-06-28T20:22:27.459Z,23.60
2017-06-28T20:24:53.379Z,23.70
2017-06-28T20:27:19.300Z,23.70
2017-06-28T20:29:45.237Z,23.70
2017-06-28T20:32:11.819Z,23.60
2017-06-28T20:34:37.759Z,23.60
2017-06-28T20:37:03.935Z,23.70
2017-06-28T20:39:29.856Z,23.60
2017-06-28T20:41:55.810Z,23.70
2017-06-28T20:44:21.765Z,23.70
2017-06-28T20:46:47.705Z,23.60
2017-06-28T20:49:13.660Z,23.70
2017-06-28T20:51:39.586Z,23.70
2017-06-28T20:54:05.548Z,23.70
2017-06-28T20:56:31.505Z,23.60
2017-06-28T20:58:57.399Z,23.60
2017-06-28T21:01:23.305Z,23.60
2017-06-28T21:03:49.233Z,23.50
2017-06-28T21:06:15.193Z,23.40
2017-06-28T21:08:41.123Z,23.30
2017-06-28T21:11:07.043Z,23.20
2017-06-28T21:13:32.973Z,23.10
2017-06-28T21:15:58.952Z,23.10
2017-06-28T21:18:24.877Z,23.10
2017-06-28T21:20:50.836Z,23.10
2017-06-28T21:23:16.803Z,23.20
2017-06-28T21:25:42.773Z,23.20
2017-06-28T21:28:08.703Z,23.20
2017-06-28T21:30:35.428Z,23.10
2017-06-28T21:33:01.383Z,23.00
2017-06-28T21:35:27.349Z,23.10
2017-06-28T21:37:53.275Z,23.00
2017-06-28T21:40:19.210Z,22.90
2017-06-28T21:42:45.395Z,22.80
2017-06-28T21:45:11.339Z,22.80
2017-06-28T21:47:38.136Z,22.80
2017-06-28T21:50:04.207Z,22.90
2017-06-28T21:52:30.167Z,22.90
2017-06-28T21:54:56.098Z,23.00
2017-06-28T21:57:22.048Z,23.00
2017-06-28T21:59:47.957Z,22.90
2017-06-28T22:02:13.876Z,22.90
2017-06-28T22:04:39.795Z,22.90
2017-06-28T22:07:05.728Z,22.80
2017-06-28T22:09:31.659Z,22.60
2017-06-28T22:11:57.612Z,22.70
2017-06-28T22:14:23.584Z,22.50
2017-06-28T22:16:49.503Z,22.40
2017-06-28T22:19:38.132Z,22.40
2017-06-28T22:22:04.044Z,22.30
2017-06-28T22:24:29.958Z,22.30
2017-06-28T22:26:55.914Z,22.20
2017-06-28T22:29:21.906Z,22.20
2017-06-28T22:31:48.539Z,22.10
2017-06-28T22:34:14.478Z,22.00
2017-06-28T22:36:40.389Z,22.00
2017-06-28T22:39:06.331Z,21.90
2017-06-28T22:41:32.252Z,22.00
2017-06-28T22:43:58.480Z,21.90
2017-06-28T22:46:24.390Z,21.90
2017-06-28T22:48:50.298Z,21.80
2017-06-28T22:51:16.219Z,21.80
2017-06-28T22:53:42.135Z,21.80
2017-06-28T22:56:08.043Z,21.80
2017-06-28T22:58:33.957Z,21.70
2017-06-28T23:00:59.875Z,21.70
2017-06-28T23:03:25.795Z,21.60
2017-06-28T23:05:51.720Z,21.50
2017-06-28T23:08:17.659Z,21.50
2017-06-28T23:10:43.605Z,21.40
2017-06-28T23:13:09.538Z,21.40
2017-06-28T23:15:35.447Z,21.40
2017-06-28T23:18:01.401Z,21.40
2017-06-28T23:20:27.339Z,21.40
2017-06-28T23:22:53.313Z,21.40
2017-06-28T23:25:19.267Z,21.40
2017-06-28T23:27:45.418Z,21.40
2017-06-28T23:30:11.339Z,21.30
2017-06-28T23:32:37.292Z,21.30
2017-06-28T23:35:03.230Z,21.40
2017-06-28T23:37:29.165Z,21.40
2017-06-28T23:39:55.083Z,21.40
2017-06-28T23:42:21.109Z,21.40
2017-06-28T23:44:47.048Z,21.40
2017-06-28T23:47:12.978Z,21.40
2017-06-28T23:49:38.895Z,21.40
2017-06-28T23:52:04.811Z,21.40
2017-06-28T23:54:30.879Z,21.30
2017-06-28T23:56:56.821Z,21.30
2017-06-28T23:59:22.731Z,21.30
